Accueil
METAR-TAF:

METAR-TAF

Aéroports :

Alpnach, Suisse

latitude: 46-56-19N, longitude: 8-17-03E, altitude: 440 m

Observation

Le bulletin a été fait il y a 32 minutes, à 20:50 UTC
Vent 1 kt de direction variable
Température 5°C
Humidité 93%
Pression 1011 hPa
Visibilité 10 km ou plus
Nuages fragmentés à une hauteur de 1500 ft
Ciel couvert à une hauteur de 3800 ft
faibles averses de pluie

METAR: LSMA 262050Z AUTO VRB01KT 9999NDV -SHRA BKN015 OVC038 05/04 Q1011 RMK

Heure: 23:22 (21:22 UTC)


TAF: absent

Observations et prévisions météorologiques de plus de 4000 aéroports (messages METAR et TAF).

Les stations disponibles sont représentées par des disques jaunes et rouges sur la carte.

Passer la souris dessus pour voir le nom de la station.

Cliquer dessus pour voir les observations et prévisions météorologiques.

Pour changer de carte: cliquez sur les boutons verts avec une croix noire pour zoomer, sur le bouton vert avec un tiret pour effectuer un zoom arrière, ou sur les flèches vertes pour les cartes adjacentes.


METAR-TAF: